Terminal Aerodrome Forecast
Issued by NWS

Home | Current Version | Previous Version | Text Only | Print | Product List | Glossary On
Versions: 1 2 3 4 5 6 7 8 9 10 11 12 13 14
000
FTUS43 KBIS 300932 AAA
TAFMOT
TAF AMD
KMOT 300932Z 3010/0106 17012G20KT P6SM SKC
     FM301500 23015G25KT P6SM SCT100
     FM302100 30014G23KT P6SM VCSH BKN070=

USA.gov is the U.S. government's official web portal to all federal, state and local government web resources and services.